createdAt,value
2018-05-06T00:02:00.421Z,102124.81
2018-05-06T00:04:28.866Z,102124.78
2018-05-06T00:07:01.355Z,102122.59
2018-05-06T00:09:29.800Z,102116.97
2018-05-06T00:11:59.965Z,102120.38
2018-05-06T00:14:29.079Z,102125.13
2018-05-06T00:16:58.611Z,102126.78
2018-05-06T00:19:26.961Z,102129.80
2018-05-06T00:21:56.216Z,102130.63
2018-05-06T00:24:24.651Z,102132.36
2018-05-06T00:26:53.104Z,102132.36
2018-05-06T00:29:21.453Z,102128.04
2018-05-06T00:31:50.221Z,102135.34
2018-05-06T00:34:18.591Z,102130.17
2018-05-06T00:36:47.026Z,102128.45
2018-05-06T00:39:16.792Z,102127.58
2018-05-06T00:41:45.273Z,102128.44
2018-05-06T00:44:14.414Z,102128.43
2018-05-06T00:46:42.978Z,102133.16
2018-05-06T00:49:12.408Z,102128.37
2018-05-06T00:51:41.448Z,102132.23
2018-05-06T00:54:27.903Z,102127.88
2018-05-06T00:56:56.249Z,102126.17
2018-05-06T00:59:25.824Z,102129.58
2018-05-06T01:01:54.218Z,102134.30
2018-05-06T01:04:22.589Z,102124.34
2018-05-06T01:06:53.131Z,102126.08
2018-05-06T01:09:22.791Z,102118.27
2018-05-06T01:11:51.125Z,102115.22
2018-05-06T01:14:20.736Z,102116.09
2018-05-06T01:16:49.140Z,102113.94
2018-05-06T01:19:19.039Z,102110.88
2018-05-06T01:21:47.441Z,102109.13
2018-05-06T01:24:15.891Z,102109.89
2018-05-06T01:26:44.410Z,102107.31
2018-05-06T01:29:13.598Z,102109.00
2018-05-06T01:31:41.965Z,102112.83
2018-05-06T01:34:10.339Z,102117.50
2018-05-06T01:36:38.731Z,102117.05
2018-05-06T01:39:07.110Z,102117.45
2018-05-06T01:41:35.467Z,102119.95
2018-05-06T01:44:03.857Z,102127.23
2018-05-06T01:46:32.176Z,102121.14
2018-05-06T01:49:01.332Z,102129.72
2018-05-06T01:51:29.660Z,102127.98
2018-05-06T01:53:58.783Z,102131.84
2018-05-06T01:56:27.115Z,102138.25
2018-05-06T01:58:56.079Z,102136.05
2018-05-06T02:01:24.442Z,102137.36
2018-05-06T02:03:52.827Z,102134.77
2018-05-06T02:06:21.234Z,102131.69
2018-05-06T02:08:50.030Z,102136.83
2018-05-06T02:11:18.430Z,102132.94
2018-05-06T02:13:47.522Z,102132.91
2018-05-06T02:16:16.655Z,102133.80
2018-05-06T02:18:45.013Z,102127.28
2018-05-06T02:21:13.390Z,102127.24
2018-05-06T02:23:41.754Z,102124.18
2018-05-06T02:26:10.965Z,102120.27
2018-05-06T02:28:40.370Z,102124.87
2018-05-06T02:31:08.741Z,102123.48
2018-05-06T02:33:37.136Z,102121.83
2018-05-06T02:36:05.507Z,102126.96
2018-05-06T02:38:33.847Z,102123.08
2018-05-06T02:41:02.287Z,102123.01
2018-05-06T02:43:30.649Z,102120.36
2018-05-06T02:45:59.070Z,102122.05
2018-05-06T02:48:27.435Z,102119.39
2018-05-06T02:50:55.817Z,102124.95
2018-05-06T02:53:24.190Z,102122.02
2018-05-06T02:55:52.525Z,102120.77
2018-05-06T02:58:20.909Z,102121.67
2018-05-06T03:00:50.311Z,102116.09
2018-05-06T03:03:19.431Z,102110.44
2018-05-06T03:05:47.772Z,102107.34
2018-05-06T03:08:16.938Z,102110.31
2018-05-06T03:10:45.353Z,102103.42
2018-05-06T03:13:14.467Z,102099.52
2018-05-06T03:15:42.797Z,102103.81
2018-05-06T03:18:11.207Z,102100.28
2018-05-06T03:20:40.309Z,102097.81
2018-05-06T03:23:09.214Z,102096.39
2018-05-06T03:25:37.559Z,102093.25
2018-05-06T03:28:06.810Z,102092.81
2018-05-06T03:30:35.182Z,102095.02
2018-05-06T03:33:03.565Z,102101.02
2018-05-06T03:35:31.960Z,102103.58
2018-05-06T03:38:00.415Z,102096.70
2018-05-06T03:40:29.164Z,102099.67
2018-05-06T03:42:57.532Z,102099.69
2018-05-06T03:45:25.979Z,102100.62
2018-05-06T03:47:54.340Z,102104.88
2018-05-06T03:50:22.690Z,102098.44
2018-05-06T03:52:52.617Z,102102.66
2018-05-06T03:55:21.838Z,102103.09
2018-05-06T03:58:07.865Z,102103.02
2018-05-06T04:00:41.970Z,102109.11
2018-05-06T04:03:10.371Z,102106.47
2018-05-06T04:05:38.724Z,102109.05
2018-05-06T04:08:07.064Z,102104.78
2018-05-06T04:10:36.261Z,102116.75
2018-05-06T04:13:04.606Z,102116.77
2018-05-06T04:15:32.976Z,102111.64
2018-05-06T04:18:01.327Z,102115.10
2018-05-06T04:20:29.663Z,102110.79
2018-05-06T04:22:58.806Z,102107.41
2018-05-06T04:25:27.269Z,102115.94
2018-05-06T04:27:55.672Z,102111.64
2018-05-06T04:30:24.076Z,102122.81
2018-05-06T04:32:52.653Z,102118.40
2018-05-06T04:35:21.091Z,102118.48
2018-05-06T04:37:49.457Z,102114.67
2018-05-06T04:40:17.873Z,102115.13
2018-05-06T04:42:46.232Z,102106.61
2018-05-06T04:45:14.603Z,102109.56
2018-05-06T04:47:42.988Z,102112.57
2018-05-06T04:50:11.403Z,102116.53
2018-05-06T04:52:39.783Z,102117.02
2018-05-06T04:55:08.182Z,102125.63
2018-05-06T04:57:37.292Z,102123.56
2018-05-06T05:00:05.670Z,102127.48
2018-05-06T05:02:34.796Z,102130.98
2018-05-06T05:05:03.135Z,102134.02
2018-05-06T05:07:32.288Z,102131.92
2018-05-06T05:10:00.625Z,102128.91
2018-05-06T05:12:28.972Z,102136.19
2018-05-06T05:14:57.321Z,102129.78
2018-05-06T05:17:25.702Z,102131.16
2018-05-06T05:19:54.080Z,102132.45
2018-05-06T05:22:22.452Z,102128.69
2018-05-06T05:24:51.227Z,102126.64
2018-05-06T05:27:19.632Z,102131.41
2018-05-06T05:29:48.032Z,102134.06
2018-05-06T05:32:16.405Z,102138.45
2018-05-06T05:34:44.785Z,102135.97
2018-05-06T05:37:13.140Z,102143.71
2018-05-06T05:39:41.480Z,102140.77
2018-05-06T05:42:11.110Z,102146.03
2018-05-06T05:44:39.665Z,102145.69
2018-05-06T05:47:08.765Z,102147.17
2018-05-06T05:49:37.133Z,102145.08
2018-05-06T05:52:07.178Z,102148.08
2018-05-06T05:54:35.533Z,102149.90
2018-05-06T05:57:03.979Z,102155.16
2018-05-06T05:59:32.357Z,102153.88
2018-05-06T06:02:00.729Z,102155.69
2018-05-06T06:04:29.114Z,102158.80
2018-05-06T06:06:57.457Z,102161.03
2018-05-06T06:09:25.841Z,102163.16
2018-05-06T06:11:54.182Z,102162.33
2018-05-06T06:14:23.341Z,102167.07
2018-05-06T06:16:52.733Z,102166.72
2018-05-06T06:19:21.141Z,102169.77
2018-05-06T06:21:49.500Z,102173.70
2018-05-06T06:24:17.845Z,102177.25
2018-05-06T06:26:46.245Z,102176.50
2018-05-06T06:29:14.599Z,102167.48
2018-05-06T06:31:43.039Z,102166.27
2018-05-06T06:34:12.486Z,102166.71
2018-05-06T06:36:41.024Z,102166.37
2018-05-06T06:39:09.399Z,102168.97
2018-05-06T06:41:38.540Z,102164.70
2018-05-06T06:44:06.861Z,102168.61
2018-05-06T06:46:35.250Z,102165.20
2018-05-06T06:49:03.624Z,102163.12
2018-05-06T06:51:32.025Z,102173.48
2018-05-06T06:54:00.403Z,102172.63
2018-05-06T06:56:29.530Z,102176.13
2018-05-06T06:58:57.930Z,102173.55
2018-05-06T07:01:26.287Z,102177.02
2018-05-06T07:03:54.637Z,102180.94
2018-05-06T07:06:23.814Z,102177.51
2018-05-06T07:08:53.734Z,102175.33
2018-05-06T07:11:22.974Z,102180.11
2018-05-06T07:13:52.104Z,102174.91
2018-05-06T07:16:20.476Z,102178.36
2018-05-06T07:18:48.845Z,102181.81
2018-05-06T07:21:17.178Z,102185.27
2018-05-06T07:23:46.291Z,102184.41
2018-05-06T07:26:15.961Z,102180.50
2018-05-06T07:28:44.312Z,102181.77
2018-05-06T07:31:12.660Z,102175.73
2018-05-06T07:33:41.024Z,102179.59
2018-05-06T07:36:10.172Z,102185.59
2018-05-06T07:38:38.529Z,102186.40
2018-05-06T07:41:06.924Z,102181.21
2018-05-06T07:43:35.301Z,102182.53
2018-05-06T07:46:04.488Z,102179.91
2018-05-06T07:48:32.846Z,102179.85
2018-05-06T07:51:01.992Z,102182.84
2018-05-06T07:53:30.344Z,102189.28
2018-05-06T07:55:58.743Z,102190.06
2018-05-06T07:58:27.061Z,102186.55
2018-05-06T08:00:56.243Z,102189.50
2018-05-06T08:03:26.424Z,102189.83
2018-05-06T08:05:54.797Z,102199.27
2018-05-06T08:08:23.334Z,102198.80
2018-05-06T08:10:52.819Z,102200.85
2018-05-06T08:13:21.152Z,102200.75
2018-05-06T08:15:49.603Z,102195.88
2018-05-06T08:18:17.976Z,102191.91
2018-05-06T08:20:46.362Z,102191.44
2018-05-06T08:23:15.541Z,102183.55
2018-05-06T08:25:43.972Z,102176.09
2018-05-06T08:28:12.495Z,102183.47
2018-05-06T08:30:40.868Z,102179.56
2018-05-06T08:33:09.224Z,102179.09
2018-05-06T08:35:37.609Z,102183.34
2018-05-06T08:38:05.967Z,102174.19
2018-05-06T08:40:34.326Z,102173.63
2018-05-06T08:43:02.698Z,102167.59
2018-05-06T08:45:31.814Z,102161.86
2018-05-06T08:48:00.232Z,102164.37
2018-05-06T08:50:28.669Z,102168.95
2018-05-06T08:52:57.076Z,102167.12
2018-05-06T08:55:25.616Z,102177.11
2018-05-06T08:57:54.086Z,102181.45
2018-05-06T09:00:22.685Z,102177.49
2018-05-06T09:02:51.052Z,102170.48
2018-05-06T09:05:20.202Z,102169.95
2018-05-06T09:07:48.587Z,102175.54
2018-05-06T09:10:16.995Z,102171.59
2018-05-06T09:12:46.272Z,102169.31
2018-05-06T09:15:14.652Z,102166.23
2018-05-06T09:17:42.987Z,102164.00
2018-05-06T09:20:12.140Z,102156.95
2018-05-06T09:22:40.496Z,102157.75
2018-05-06T09:25:08.935Z,102153.72
2018-05-06T09:27:37.311Z,102152.69
2018-05-06T09:30:06.418Z,102146.03
2018-05-06T09:32:35.625Z,102141.62
2018-05-06T09:35:03.990Z,102143.66
2018-05-06T09:37:32.491Z,102141.42
2018-05-06T09:40:00.831Z,102138.27
2018-05-06T09:42:30.033Z,102141.17
2018-05-06T09:44:58.406Z,102134.55
2018-05-06T09:47:27.541Z,102146.13
2018-05-06T09:49:55.930Z,102139.55
2018-05-06T09:52:24.296Z,102149.41
2018-05-06T09:54:52.629Z,102142.75
2018-05-06T09:57:21.070Z,102136.50
2018-05-06T09:59:49.443Z,102131.95
2018-05-06T10:02:17.823Z,102134.53
2018-05-06T10:04:46.279Z,102130.02
2018-05-06T10:07:14.633Z,102129.45
2018-05-06T10:09:43.765Z,102127.92
2018-05-06T10:12:12.142Z,102133.86
2018-05-06T10:14:40.560Z,102126.80
2018-05-06T10:17:09.051Z,102131.92
2018-05-06T10:19:37.436Z,102123.08
2018-05-06T10:22:06.578Z,102126.92
2018-05-06T10:24:35.006Z,102116.29
2018-05-06T10:27:03.387Z,102113.09
2018-05-06T10:29:31.716Z,102103.77
2018-05-06T10:32:00.073Z,102105.52
2018-05-06T10:34:28.426Z,102107.58
2018-05-06T10:36:57.859Z,102097.03
2018-05-06T10:39:26.297Z,102101.83
2018-05-06T10:41:54.691Z,102094.77
2018-05-06T10:44:23.849Z,102102.08
2018-05-06T10:46:52.200Z,102093.25
2018-05-06T10:49:20.605Z,102092.52
2018-05-06T10:51:49.074Z,102083.29
2018-05-06T10:54:18.545Z,102088.08
2018-05-06T10:56:47.732Z,102088.08
2018-05-06T10:59:16.859Z,102084.59
2018-05-06T11:01:45.225Z,102081.98
2018-05-06T11:04:14.355Z,102075.07
2018-05-06T11:06:42.721Z,102076.06
2018-05-06T11:09:11.076Z,102061.35
2018-05-06T11:11:40.186Z,102061.77
2018-05-06T11:14:08.554Z,102061.22
2018-05-06T11:16:37.769Z,102066.16
2018-05-06T11:19:06.130Z,102057.23
2018-05-06T11:21:35.574Z,102060.37
2018-05-06T11:24:03.996Z,102058.86
2018-05-06T11:26:33.196Z,102053.98
2018-05-06T11:29:02.326Z,102049.39
2018-05-06T11:31:30.730Z,102041.05
2018-05-06T11:33:59.141Z,102043.48
2018-05-06T11:36:27.542Z,102038.94
2018-05-06T11:38:56.857Z,102032.92
2018-05-06T11:41:25.280Z,102035.25
2018-05-06T11:43:53.617Z,102033.27
2018-05-06T11:46:21.964Z,102031.27
2018-05-06T11:48:51.085Z,102029.65
2018-05-06T11:51:20.047Z,102021.14
2018-05-06T11:53:49.190Z,102023.34
2018-05-06T11:56:17.971Z,102018.81
2018-05-06T11:58:46.264Z,102015.36
2018-05-06T12:01:14.651Z,102016.16
2018-05-06T12:03:43.008Z,102009.42
2018-05-06T12:06:11.563Z,102004.03
2018-05-06T12:08:40.019Z,102014.28
2018-05-06T12:11:08.365Z,102006.44
2018-05-06T12:13:37.749Z,102006.00
2018-05-06T12:16:06.184Z,102008.76
2018-05-06T12:18:35.239Z,101992.14
2018-05-06T12:21:03.592Z,101996.25
2018-05-06T12:23:31.970Z,101987.14
2018-05-06T12:26:00.304Z,101992.59
2018-05-06T12:28:28.653Z,101989.70
2018-05-06T12:30:57.163Z,101984.16
2018-05-06T12:33:25.550Z,101982.90
2018-05-06T12:35:53.881Z,101980.52
2018-05-06T12:38:22.232Z,101979.27
2018-05-06T12:40:52.196Z,101980.71
2018-05-06T12:43:21.075Z,101972.70
2018-05-06T12:45:50.358Z,101968.03
2018-05-06T12:48:19.610Z,101974.45
2018-05-06T12:50:47.961Z,101964.53
2018-05-06T12:53:16.415Z,101967.66
2018-05-06T12:55:45.665Z,101962.93
2018-05-06T12:58:14.005Z,101954.23
2018-05-06T13:00:42.335Z,101954.86
2018-05-06T13:03:11.572Z,101947.91
2018-05-06T13:05:39.980Z,101952.73
2018-05-06T13:08:08.325Z,101953.98
2018-05-06T13:10:36.672Z,101939.05
2018-05-06T13:13:05.754Z,101941.86
2018-05-06T13:15:34.233Z,101939.16
2018-05-06T13:18:02.584Z,101937.20
2018-05-06T13:20:30.932Z,101935.05
2018-05-06T13:22:59.297Z,101932.39
2018-05-06T13:25:28.435Z,101933.08
2018-05-06T13:27:56.834Z,101928.58
2018-05-06T13:30:25.212Z,101925.33
2018-05-06T13:32:54.079Z,101921.27
2018-05-06T13:35:23.446Z,101924.56
2018-05-06T13:37:53.745Z,101916.60
2018-05-06T13:40:22.109Z,101920.55
2018-05-06T13:42:50.511Z,101921.37
2018-05-06T13:45:19.636Z,101913.43
2018-05-06T13:47:48.643Z,101904.00
2018-05-06T13:50:17.216Z,101909.20
2018-05-06T13:52:45.592Z,101909.96
2018-05-06T13:55:13.948Z,101906.09
2018-05-06T13:57:43.932Z,101897.72
2018-05-06T14:00:12.955Z,101903.07
2018-05-06T14:02:42.977Z,101897.72
2018-05-06T14:05:13.294Z,101886.98
2018-05-06T14:07:43.176Z,101891.59
2018-05-06T14:10:12.297Z,101891.98
2018-05-06T14:12:41.539Z,101882.47
2018-05-06T14:15:10.001Z,101881.55
2018-05-06T14:17:40.042Z,101883.91
2018-05-06T14:20:09.206Z,101873.70
2018-05-06T14:22:39.257Z,101879.62
2018-05-06T14:25:08.651Z,101880.02
2018-05-06T14:27:37.449Z,101877.02
2018-05-06T14:30:05.882Z,101877.02
2018-05-06T14:32:34.890Z,101875.59
2018-05-06T14:35:04.850Z,101872.95
2018-05-06T14:37:33.176Z,101873.33
2018-05-06T14:40:02.281Z,101870.83
2018-05-06T14:42:31.394Z,101870.47
2018-05-06T14:45:01.530Z,101864.08
2018-05-06T14:47:47.732Z,101865.89
2018-05-06T14:50:16.869Z,101859.89
2018-05-06T14:52:45.244Z,101858.84
2018-05-06T14:55:13.597Z,101851.55
2018-05-06T14:57:42.752Z,101849.99
2018-05-06T15:00:13.582Z,101856.06
2018-05-06T15:02:41.997Z,101849.45
2018-05-06T15:05:10.370Z,101849.23
2018-05-06T15:07:39.119Z,101845.28
2018-05-06T15:10:08.257Z,101839.52
2018-05-06T15:12:38.110Z,101833.05
2018-05-06T15:15:06.559Z,101832.63
2018-05-06T15:17:34.900Z,101830.75
2018-05-06T15:20:03.346Z,101826.72
2018-05-06T15:22:31.721Z,101837.80
2018-05-06T15:25:00.100Z,101836.45
2018-05-06T15:27:29.172Z,101832.42
2018-05-06T15:29:58.252Z,101829.12
2018-05-06T15:32:27.479Z,101829.45
2018-05-06T15:34:59.121Z,101826.52
2018-05-06T15:37:28.276Z,101826.20
2018-05-06T15:39:59.738Z,101815.48
2018-05-06T15:42:28.094Z,101812.94
2018-05-06T15:44:58.295Z,101811.77
2018-05-06T15:47:28.304Z,101815.94
2018-05-06T15:49:56.742Z,101807.30
2018-05-06T15:52:25.174Z,101803.98
2018-05-06T15:54:53.624Z,101805.04
2018-05-06T15:57:22.524Z,101803.23
2018-05-06T15:59:50.917Z,101808.02
2018-05-06T16:02:57.234Z,101802.80
2018-05-06T16:05:25.631Z,101794.75
2018-05-06T16:07:54.800Z,101794.98
2018-05-06T16:10:23.925Z,101799.70
2018-05-06T16:12:52.301Z,101802.63
2018-05-06T16:15:22.221Z,101796.66
2018-05-06T16:17:51.358Z,101794.70
2018-05-06T16:20:20.630Z,101788.05
2018-05-06T16:22:49.058Z,101786.81
2018-05-06T16:25:17.916Z,101789.08
2018-05-06T16:27:46.312Z,101786.95
2018-05-06T16:30:14.692Z,101780.34
2018-05-06T16:32:43.219Z,101785.16
2018-05-06T16:35:11.561Z,101785.37
2018-05-06T16:37:40.662Z,101784.93
2018-05-06T16:40:09.881Z,101779.28
2018-05-06T16:42:38.253Z,101781.75
2018-05-06T16:45:06.671Z,101782.23
2018-05-06T16:47:35.606Z,101788.88
2018-05-06T16:50:04.772Z,101780.95
2018-05-06T16:52:33.162Z,101789.64
2018-05-06T16:55:01.501Z,101782.90
2018-05-06T16:57:29.851Z,101788.22
2018-05-06T16:59:58.995Z,101782.90
2018-05-06T17:02:27.358Z,101781.16
2018-05-06T17:04:55.763Z,101777.64
2018-05-06T17:07:24.088Z,101783.38
2018-05-06T17:09:52.443Z,101778.15
2018-05-06T17:12:22.282Z,101784.14
2018-05-06T17:14:51.731Z,101777.20
2018-05-06T17:17:20.107Z,101782.94
2018-05-06T17:19:48.470Z,101780.39
2018-05-06T17:22:16.952Z,101780.36
2018-05-06T17:24:45.309Z,101775.99
2018-05-06T17:27:14.373Z,101781.78
2018-05-06T17:29:43.508Z,101777.39
2018-05-06T17:32:12.080Z,101777.17
2018-05-06T17:34:40.412Z,101771.31
2018-05-06T17:37:09.703Z,101774.80
2018-05-06T17:39:38.359Z,101782.95
2018-05-06T17:42:06.696Z,101779.28
2018-05-06T17:44:35.839Z,101781.34
2018-05-06T17:47:04.211Z,101784.36
2018-05-06T17:49:32.664Z,101783.41
2018-05-06T17:52:01.758Z,101788.46
2018-05-06T17:54:30.954Z,101791.73
2018-05-06T17:57:00.398Z,101797.11
2018-05-06T17:59:28.871Z,101791.67
2018-05-06T18:01:57.217Z,101794.92
2018-05-06T18:04:26.356Z,101790.01
2018-05-06T18:06:54.743Z,101793.22
2018-05-06T18:09:23.252Z,101792.64
2018-05-06T18:11:51.638Z,101796.28
2018-05-06T18:14:20.017Z,101800.40
2018-05-06T18:16:48.371Z,101794.86
2018-05-06T18:19:16.729Z,101801.00
2018-05-06T18:21:45.132Z,101803.37
2018-05-06T18:24:13.501Z,101802.22
2018-05-06T18:26:41.865Z,101803.22
2018-05-06T18:29:11.172Z,101801.29
2018-05-06T18:31:39.640Z,101797.56
2018-05-06T18:34:07.992Z,101800.38
2018-05-06T18:36:36.377Z,101805.04
2018-05-06T18:39:04.729Z,101804.17
2018-05-06T18:41:33.885Z,101805.72
2018-05-06T18:44:02.232Z,101808.00
2018-05-06T18:46:30.636Z,101810.77
2018-05-06T18:48:59.246Z,101805.79
2018-05-06T18:51:27.594Z,101807.30
2018-05-06T18:53:56.876Z,101810.02
2018-05-06T18:56:26.325Z,101818.50
2018-05-06T18:58:54.708Z,101814.73
2018-05-06T19:01:23.054Z,101818.88
2018-05-06T19:03:52.422Z,101819.44
2018-05-06T19:06:21.844Z,101821.02
2018-05-06T19:08:51.097Z,101823.84
2018-05-06T19:11:19.491Z,101821.88
2018-05-06T19:13:48.749Z,101827.69
2018-05-06T19:16:18.032Z,101833.11
2018-05-06T19:18:46.398Z,101835.03
2018-05-06T19:21:17.204Z,101829.52
2018-05-06T19:23:47.870Z,101836.19
2018-05-06T19:26:18.514Z,101838.13
2018-05-06T19:28:47.223Z,101839.55
2018-05-06T19:31:15.699Z,101844.06
2018-05-06T19:33:44.538Z,101841.62
2018-05-06T19:36:14.983Z,101837.27
2018-05-06T19:38:43.349Z,101844.25
2018-05-06T19:41:13.261Z,101841.30
2018-05-06T19:43:42.505Z,101843.66
2018-05-06T19:46:10.891Z,101845.83
2018-05-06T19:48:39.920Z,101847.08
2018-05-06T19:51:08.340Z,101842.52
2018-05-06T19:53:36.724Z,101843.49
2018-05-06T19:56:06.813Z,101844.70
2018-05-06T19:58:36.022Z,101843.53
2018-05-06T20:01:05.243Z,101834.56
2018-05-06T20:03:33.783Z,101840.67
2018-05-06T20:06:03.299Z,101839.11
2018-05-06T20:08:31.769Z,101839.19
2018-05-06T20:11:01.084Z,101832.80
2018-05-06T20:13:29.700Z,101837.31
2018-05-06T20:15:58.164Z,101833.98
2018-05-06T20:18:27.995Z,101834.16
2018-05-06T20:20:56.702Z,101835.55
2018-05-06T20:23:25.782Z,101841.83
2018-05-06T20:25:54.571Z,101834.15
2018-05-06T20:28:23.289Z,101832.92
2018-05-06T20:30:52.032Z,101842.22
2018-05-06T20:33:21.389Z,101839.27
2018-05-06T20:35:50.950Z,101834.93
2018-05-06T20:38:19.397Z,101842.03
2018-05-06T20:40:47.890Z,101839.00
2018-05-06T20:43:16.345Z,101836.09
2018-05-06T20:45:46.729Z,101838.80
2018-05-06T20:48:15.106Z,101839.80
2018-05-06T20:50:43.458Z,101836.42
2018-05-06T20:53:12.998Z,101832.17
2018-05-06T20:55:43.682Z,101831.39
2018-05-06T20:58:12.041Z,101833.21
2018-05-06T21:00:45.582Z,101832.45
2018-05-06T21:03:14.892Z,101831.69
2018-05-06T21:05:44.713Z,101830.51
2018-05-06T21:08:13.105Z,101831.81
2018-05-06T21:10:41.445Z,101828.77
2018-05-06T21:13:09.812Z,101826.68
2018-05-06T21:15:38.210Z,101831.97
2018-05-06T21:18:06.688Z,101838.95
2018-05-06T21:20:35.044Z,101834.27
2018-05-06T21:23:03.432Z,101838.36
2018-05-06T21:25:31.773Z,101840.53
2018-05-06T21:28:00.983Z,101841.48
2018-05-06T21:30:30.113Z,101842.89
2018-05-06T21:33:01.587Z,101836.84
2018-05-06T21:35:29.903Z,101836.02
2018-05-06T21:37:58.338Z,101837.44
2018-05-06T21:40:26.664Z,101837.14
2018-05-06T21:42:56.604Z,101836.34
2018-05-06T21:45:25.006Z,101838.16
2018-05-06T21:47:53.324Z,101837.74
2018-05-06T21:50:21.684Z,101833.46
2018-05-06T21:52:50.059Z,101834.01
2018-05-06T21:55:18.423Z,101830.59
2018-05-06T21:57:46.764Z,101827.66
2018-05-06T22:00:15.140Z,101827.34
2018-05-06T22:02:43.503Z,101823.52
2018-05-06T22:05:14.764Z,101824.86
2018-05-06T22:07:43.892Z,101821.88
2018-05-06T22:10:12.284Z,101822.70
2018-05-06T22:12:40.736Z,101828.88
2018-05-06T22:15:09.077Z,101835.86
2018-05-06T22:17:37.428Z,101833.70
2018-05-06T22:20:05.802Z,101832.49
2018-05-06T22:22:34.232Z,101842.08
2018-05-06T22:25:03.402Z,101837.80
2018-05-06T22:27:31.752Z,101839.53
2018-05-06T22:30:00.115Z,101836.11
2018-05-06T22:32:28.469Z,101832.70
2018-05-06T22:34:57.604Z,101835.40
2018-05-06T22:37:25.953Z,101836.75
2018-05-06T22:39:54.306Z,101830.84
2018-05-06T22:42:23.455Z,101831.84
2018-05-06T22:44:51.992Z,101835.01
2018-05-06T22:47:21.138Z,101827.77
2018-05-06T22:49:49.512Z,101823.41
2018-05-06T22:52:17.904Z,101822.92
2018-05-06T22:54:47.644Z,101821.97
2018-05-06T22:57:17.924Z,101825.95
2018-05-06T22:59:47.218Z,101829.41
2018-05-06T23:02:15.546Z,101827.72
2018-05-06T23:04:44.776Z,101827.25
2018-05-06T23:07:13.105Z,101820.80
2018-05-06T23:09:41.513Z,101822.11
2018-05-06T23:12:10.658Z,101822.63
2018-05-06T23:14:39.801Z,101816.64
2018-05-06T23:17:08.927Z,101818.41
2018-05-06T23:19:38.299Z,101819.75
2018-05-06T23:22:07.465Z,101814.59
2018-05-06T23:24:35.857Z,101820.69
2018-05-06T23:27:05.137Z,101827.69
2018-05-06T23:29:33.591Z,101829.48
2018-05-06T23:32:01.960Z,101829.09
2018-05-06T23:34:30.346Z,101827.33
2018-05-06T23:36:58.710Z,101832.52
2018-05-06T23:39:27.138Z,101827.76
2018-05-06T23:41:56.278Z,101831.25
2018-05-06T23:44:26.104Z,101829.13
2018-05-06T23:46:56.055Z,101825.70
2018-05-06T23:49:24.418Z,101828.33
2018-05-06T23:51:52.773Z,101823.97
2018-05-06T23:54:21.116Z,101826.59
2018-05-06T23:56:49.472Z,101824.07
2018-05-06T23:59:17.803Z,101821.91
